TimeEST,TemperatureF,Dew PointF,Humidity,Sea Level PressureIn,VisibilityMPH,Wind Direction,Wind SpeedMPH,Gust SpeedMPH,PrecipitationIn,Events,Conditions,WindDirDegrees,DateUTC
12:15 AM,39.2,19.4,45,30.15,10.0,South,6.9,-,N/A,,Clear,190,2013-02-19 05:15:00
12:35 AM,41.0,19.4,42,30.13,10.0,South,6.9,-,N/A,,Clear,190,2013-02-19 05:35:00
12:55 AM,41.0,19.4,42,30.13,10.0,South,6.9,-,N/A,,Clear,180,2013-02-19 05:55:00
1:15 AM,39.2,19.4,45,30.13,10.0,South,5.8,-,N/A,,Clear,180,2013-02-19 06:15:00
1:35 AM,39.2,19.4,45,30.13,10.0,SSW,6.9,-,N/A,,Clear,200,2013-02-19 06:35:00
1:55 AM,37.4,19.4,48,30.13,10.0,SSW,4.6,-,N/A,,Clear,200,2013-02-19 06:55:00
2:15 AM,37.4,19.4,48,30.12,10.0,South,4.6,-,N/A,,Clear,190,2013-02-19 07:15:00
2:35 AM,37.4,19.4,48,30.12,10.0,SSW,6.9,-,N/A,,Clear,200,2013-02-19 07:35:00
2:55 AM,37.4,21.2,52,30.10,10.0,South,6.9,-,N/A,,Clear,190,2013-02-19 07:55:00
3:15 AM,37.4,21.2,52,30.09,10.0,South,4.6,-,N/A,,Clear,190,2013-02-19 08:15:00
3:35 AM,37.4,21.2,52,30.07,10.0,SSW,5.8,-,N/A,,Clear,200,2013-02-19 08:35:00
3:55 AM,37.4,21.2,52,30.07,10.0,South,6.9,-,N/A,,Clear,190,2013-02-19 08:55:00
4:15 AM,37.4,21.2,52,30.05,10.0,South,5.8,-,N/A,,Clear,180,2013-02-19 09:15:00
4:35 AM,35.6,21.2,56,30.04,10.0,South,4.6,-,N/A,,Clear,190,2013-02-19 09:35:00
4:55 AM,35.6,21.2,56,30.04,10.0,South,4.6,-,N/A,,Clear,180,2013-02-19 09:55:00
5:15 AM,35.6,21.2,56,30.05,10.0,South,5.8,-,N/A,,Clear,190,2013-02-19 10:15:00
5:35 AM,35.6,21.2,56,30.03,10.0,South,6.9,-,N/A,,Clear,190,2013-02-19 10:35:00
5:55 AM,35.6,23.0,60,30.03,10.0,South,5.8,-,N/A,,Clear,190,2013-02-19 10:55:00
7:35 AM,35.6,23.0,60,30.01,10.0,South,4.6,-,N/A,,Clear,180,2013-02-19 12:35:00
7:55 AM,37.4,24.8,60,30.02,10.0,South,4.6,-,N/A,,Clear,190,2013-02-19 12:55:00
8:15 AM,37.4,24.8,60,30.02,10.0,SSW,8.1,-,N/A,,Scattered Clouds,200,2013-02-19 13:15:00
8:35 AM,37.4,24.8,60,30.01,10.0,SSW,5.8,-,N/A,,Mostly Cloudy,210,2013-02-19 13:35:00
8:55 AM,37.4,26.6,65,29.99,10.0,South,6.9,-,N/A,Rain,Light Rain,170,2013-02-19 13:55:00
9:15 AM,39.2,26.6,61,29.99,10.0,South,8.1,-,N/A,,Mostly Cloudy,190,2013-02-19 14:15:00
9:35 AM,39.2,26.6,61,29.98,10.0,SW,5.8,-,N/A,,Overcast,220,2013-02-19 14:35:00
9:55 AM,37.4,30.2,75,29.98,4.0,SSW,6.9,-,0.01,Rain,Rain,210,2013-02-19 14:55:00
10:15 AM,37.4,33.8,87,29.96,7.0,South,4.6,-,0.02,Rain,Rain,190,2013-02-19 15:15:00
10:35 AM,37.4,33.8,87,29.96,7.0,South,6.9,-,0.03,Rain,Light Rain,190,2013-02-19 15:35:00
10:55 AM,39.2,35.6,87,29.94,10.0,South,8.1,-,0.05,Rain,Light Rain,180,2013-02-19 15:55:00
11:15 AM,39.2,35.6,87,29.94,10.0,South,8.1,-,0.01,Rain,Rain,190,2013-02-19 16:15:00
11:35 AM,39.2,35.6,87,29.93,10.0,South,6.9,-,0.02,Rain,Light Rain,190,2013-02-19 16:35:00
11:55 AM,39.2,37.4,93,29.91,10.0,SSW,5.8,-,0.02,,Overcast,210,2013-02-19 16:55:00
12:15 PM,39.2,37.4,93,29.89,10.0,SSW,4.6,-,N/A,,Overcast,200,2013-02-19 17:15:00
12:35 PM,41.0,37.4,87,29.87,10.0,SSW,10.4,-,N/A,Rain,Light Rain,200,2013-02-19 17:35:00
12:55 PM,41.0,37.4,87,29.85,3.0,South,11.5,20.7,N/A,Rain,Rain,190,2013-02-19 17:55:00
1:15 PM,41.0,39.2,93,29.83,2.5,SSW,6.9,20.7,0.01,,Drizzle,200,2013-02-19 18:15:00
1:35 PM,42.8,39.2,87,29.81,5.0,SSW,12.7,19.6,0.02,Rain,Rain,200,2013-02-19 18:35:00
1:55 PM,42.8,39.2,87,29.80,7.0,SSW,8.1,-,0.03,,Drizzle,200,2013-02-19 18:55:00
2:15 PM,42.8,39.2,87,29.79,10.0,SSW,8.1,-,N/A,,Overcast,210,2013-02-19 19:15:00
2:35 PM,42.8,39.2,87,29.77,10.0,South,8.1,19.6,N/A,,Overcast,190,2013-02-19 19:35:00
2:55 PM,42.8,39.2,87,29.78,10.0,SSW,8.1,19.6,N/A,,Overcast,200,2013-02-19 19:55:00
3:15 PM,42.8,39.2,87,29.76,10.0,SSW,8.1,17.3,N/A,,Overcast,200,2013-02-19 20:15:00
3:35 PM,44.6,39.2,81,29.75,10.0,SSW,9.2,-,N/A,,Overcast,210,2013-02-19 20:35:00
3:55 PM,44.6,41.0,87,29.75,10.0,SSW,6.9,-,N/A,,Overcast,210,2013-02-19 20:55:00
4:15 PM,44.6,41.0,87,29.76,10.0,SSW,8.1,-,N/A,,Overcast,210,2013-02-19 21:15:00
4:35 PM,44.6,41.0,87,29.75,10.0,SSW,8.1,-,N/A,,Overcast,210,2013-02-19 21:35:00
4:55 PM,44.6,41.0,87,29.75,10.0,SW,5.8,-,N/A,,Mostly Cloudy,220,2013-02-19 21:55:00
5:15 PM,44.6,41.0,87,29.77,10.0,West,4.6,-,N/A,,Mostly Cloudy,260,2013-02-19 22:15:00
5:35 PM,44.6,41.0,87,29.78,10.0,SW,4.6,-,N/A,,Drizzle,230,2013-02-19 22:35:00
5:55 PM,44.6,39.2,81,29.78,7.0,SSW,8.1,16.1,N/A,Rain,Rain,210,2013-02-19 22:55:00
6:15 PM,44.6,37.4,76,29.78,10.0,SW,5.8,-,N/A,,Overcast,220,2013-02-19 23:15:00
7:35 PM,41.0,37.4,87,29.82,10.0,West,5.8,-,N/A,,Clear,280,2013-02-20 00:35:00
7:55 PM,39.2,37.4,93,29.83,10.0,West,4.6,-,N/A,,Clear,280,2013-02-20 00:55:00
8:15 PM,37.4,35.6,93,29.82,5.0,West,3.5,-,N/A,,Clear,260,2013-02-20 01:15:00
8:35 PM,37.4,35.6,93,29.83,10.0,WSW,3.5,-,N/A,,Clear,250,2013-02-20 01:35:00
8:55 PM,33.8,33.8,100,29.83,2.5,Calm,Calm,-,N/A,,Scattered Clouds,0,2013-02-20 01:55:00
9:15 PM,35.6,33.8,93,29.84,4.0,Calm,Calm,-,N/A,,Scattered Clouds,0,2013-02-20 02:15:00
9:35 PM,33.8,30.2,87,29.85,0.5,West,3.5,-,N/A,Fog,Fog,260,2013-02-20 02:35:00
9:55 PM,35.6,33.8,93,29.85,10.0,WSW,8.1,-,N/A,,Clear,250,2013-02-20 02:55:00
10:15 PM,39.2,28.4,65,29.85,10.0,WSW,8.1,-,N/A,,Clear,250,2013-02-20 03:15:00
10:35 PM,39.2,26.6,61,29.85,10.0,West,6.9,-,N/A,,Clear,260,2013-02-20 03:35:00
10:55 PM,39.2,23.0,52,29.85,10.0,West,8.1,-,N/A,,Clear,260,2013-02-20 03:55:00
11:15 PM,39.2,21.2,49,29.85,10.0,West,9.2,-,N/A,,Clear,260,2013-02-20 04:15:00
11:35 PM,39.2,21.2,49,29.86,10.0,West,9.2,-,N/A,,Clear,260,2013-02-20 04:35:00
11:55 PM,39.2,21.2,49,29.86,10.0,West,9.2,-,N/A,,Clear,270,2013-02-20 04:55:00